Flight Track Log - Related Links

Times and Time Zones

All times are in EDT time to prevent confusion due to time zone crossing. See the AAL1884 flight status page for this flight to view local times or setup timezone preferences in your user account.

Time Position Orientation Groundspeed Altitude Reporting Facility
EDT Latitude Longitude Course Direction KTS MPH feet Rate Location/Type
Sun 11:50:03 AM 37.3167 -121.8667 95° East 208 239 2,300  Level Northern Cal TRACON
Sun 11:51:00 AM 37.3313 -121.4850 122° Southeast  Level Estimated
Sun 11:51:03 AM 37.2667 -121.8000 133° Southeast 270 311 4,300  Level Northern Cal TRACON
Sun 11:52:00 AM 37.3205 -121.3371 138° Southeast  Level Estimated
Sun 11:52:03 AM 37.2000 -121.7500 149° Southeast 283 326 6,900  Level Northern Cal TRACON
Sun 11:53:00 AM 37.3095 -121.1891 141° Southeast  Level Estimated
Sun 11:53:03 AM 37.1500 -121.6667 127° Southeast 299 344 9,200  Level Northern Cal TRACON
Sun 11:54:00 AM 37.2983 -121.0413 133° Southeast  Level Estimated
Sun 11:54:03 AM 37.0833 -121.6000 141° Southeast 319 367 11,100  Level Northern Cal TRACON
Sun 11:54:57 AM 37.0167 -121.5333 141° Southeast 358 412 12,300 1,836 Climbing Northern Cal TRACON
Sun 11:55:00 AM 37.2869 -120.8921 95° East  Level Estimated
Sun 11:56:17 AM 36.9178 -121.4111 135° Southeast 374 430 15,200  Level Oakland Center
Sun 11:57:18 AM 36.8411 -121.3214 137° Southeast 378 435 17,300 2,016 Climbing Oakland Center
Sun 11:58:19 AM 36.7522 -121.2233 139° Southeast 392 451 19,300 1,721 Climbing Oakland Center
Sun 11:59:20 AM 36.6678 -121.1269 138° Southeast 408 470 20,800 1,512 Climbing Oakland Center
Sun 12:00:22 PM 36.5811 -121.0267 137° Southeast 422 486 22,400 1,512 Climbing Oakland Center
Sun 12:01:23 PM 36.4933 -120.9256 137° Southeast 429 494 23,900 1,377 Climbing Oakland Center
Sun 12:02:24 PM 36.4028 -120.8217 137° Southeast 440 506 25,200 1,377 Climbing Oakland Center
Sun 12:03:25 PM 36.3108 -120.7178 138° Southeast 446 513 26,700 1,220 Climbing Oakland Center
Sun 12:04:27 PM 36.2169 -120.6147 138° Southeast 450 518 27,700 1,073 Climbing Oakland Center
Sun 12:05:28 PM 36.1378 -120.4925 129° Southeast 447 514 28,900 1,377 Climbing Oakland Center
Sun 12:06:29 PM 36.0639 -120.3633 125° Southeast 456 525 30,500 1,268 Climbing Oakland Center
Sun 12:07:31 PM 35.9906 -120.2408 126° Southeast 446 513 31,500 878 Climbing Oakland Center
Sun 12:08:32 PM 35.9153 -120.1181 127° Southeast 445 512 32,300 738 Climbing Oakland Center
Sun 12:09:33 PM 35.8403 -119.9950 127° Southeast 445 512 33,000 344 Climbing Oakland Center
Sun 12:10:34 PM 35.7514 -119.8483 127° Southeast 441 507 33,000 -49 Level Oakland Center
Sun 12:11:36 PM 35.6767 -119.7272 127° Southeast 441 507 32,900 -49 Descending Oakland Center
Sun 12:12:37 PM 35.6019 -119.6058 127° Southeast 442 509 32,900  Level Oakland Center
Sun 12:13:11 PM 35.5728 -119.5578 127° Southeast 444 511 32,900  Level Los Angeles Center
Sun 12:14:13 PM 35.4853 -119.4122 126° Southeast 440 506 32,900 48 Level Los Angeles Center
Sun 12:15:15 PM 35.5000 -119.2631 83° East 447 514 33,000  Climbing Los Angeles Center
Sun 12:16:17 PM 35.5133 -119.1117 84° East 446 513 32,900 -44 Descending Los Angeles Center
Sun 12:17:31 PM 35.5097 -118.9581 92° East 447 514 32,900 44 Level Los Angeles Center
Sun 12:18:33 PM 35.5083 -118.7756 90° East 447 514 33,000 48 Climbing Los Angeles Center
Sun 12:19:35 PM 35.5050 -118.5944 91° East 442 509 33,000  Level Los Angeles Center
Sun 12:20:38 PM 35.5044 -118.4369 90° East 451 519 33,000  Level Los Angeles Center
Sun 12:21:40 PM 35.5031 -118.2839 91° East 449 517 33,000  Level Los Angeles Center
Sun 12:22:42 PM 35.4997 -118.1317 91° East 445 512 33,000  Level Los Angeles Center
Sun 12:23:44 PM 35.4983 -117.9772 91° East 448 516 33,000  Level Los Angeles Center
Sun 12:24:46 PM 35.4983 -117.8228 90° East 449 517 33,000  Level Los Angeles Center
Sun 12:25:48 PM 35.4969 -117.6664 91° East 454 522 33,000  Level Los Angeles Center
Sun 12:26:50 PM 35.4967 -117.5092 90° East 456 525 33,000  Level Los Angeles Center
Sun 12:27:52 PM 35.4939 -117.3222 91° East 455 524 33,000  Level Los Angeles Center
Sun 12:28:54 PM 35.4928 -117.1656 90° East 457 526 33,000  Level Los Angeles Center
Sun 12:30:08 PM 35.4908 -117.0097 91° East 457 526 33,000  Level Los Angeles Center
Sun 12:31:11 PM 35.4886 -116.8225 91° East 456 525 33,000  Level Los Angeles Center
Sun 12:32:13 PM 35.4856 -116.6686 91° East 454 522 33,000  Level Los Angeles Center
Sun 12:33:15 PM 35.4842 -116.5156 91° East 450 518 33,000  Level Los Angeles Center
Sun 12:34:17 PM 35.4814 -116.3611 91° East 454 522 33,000  Level Los Angeles Center
Sun 12:35:19 PM 35.4786 -116.1775 91° East 452 520 33,000  Level Los Angeles Center
Sun 12:36:21 PM 35.4747 -116.0233 92° East 453 521 33,000  Level Los Angeles Center
Sun 12:37:24 PM 35.4722 -115.8561 91° East 451 519 33,000  Level Los Angeles Center
Sun 12:38:26 PM 35.4683 -115.7022 92° East 453 521 33,000  Level Los Angeles Center
Sun 12:39:28 PM 35.4656 -115.5481 91° East 453 521 33,000  Level Los Angeles Center
Sun 12:40:30 PM 35.4611 -115.3931 92° East 456 525 33,000  Level Los Angeles Center
Sun 12:41:32 PM 35.4564 -115.2392 92° East 455 524 33,000  Level Los Angeles Center
Sun 12:42:34 PM 35.4536 -115.0547 91° East 456 525 33,000  Level Los Angeles Center
Sun 12:43:36 PM 35.4508 -114.8992 91° East 458 527 33,000  Level Los Angeles Center
Sun 12:44:38 PM 35.4444 -114.7428 93° East 459 528 33,000  Level Los Angeles Center
Sun 12:45:40 PM 35.4397 -114.5881 92° East 457 526 33,000  Level Los Angeles Center
Sun 12:46:43 PM 35.4336 -114.4331 93° East 458 527 33,000  Level Los Angeles Center
Sun 12:47:45 PM 35.4272 -114.2781 93° East 457 526 33,000  Level Los Angeles Center
Sun 12:48:47 PM 35.4219 -114.0917 92° East 455 524 33,000  Level Los Angeles Center
Sun 12:49:49 PM 35.4158 -113.9381 93° East 453 521 33,000  Level Los Angeles Center
Sun 12:50:51 PM 35.4108 -113.8003 93° East 453 521 33,000  Level Los Angeles Center
Sun 12:51:53 PM 35.4039 -113.6156 93° East 454 522 33,000  Level Los Angeles Center
Sun 12:52:55 PM 35.3972 -113.4589 93° East 461 531 33,000  Level Los Angeles Center
Sun 12:53:57 PM 35.3911 -113.3044 93° East 458 527 33,000  Level Los Angeles Center
Sun 12:54:59 PM 35.3839 -113.1292 93° East 459 528 33,000  Level Los Angeles Center
Sun 12:56:02 PM 35.3758 -112.9736 94° East 457 526 33,000  Level Los Angeles Center
Sun 12:56:49 PM 35.3708 -112.8497 93° East 472 543 33,000  Level Albuquerque Center
Sun 12:57:51 PM 35.3639 -112.6931 93° East 466 536 33,000  Level Albuquerque Center
Sun 12:58:53 PM 35.3567 -112.5369 93° East 464 534 33,000  Level Albuquerque Center
Sun 12:59:55 PM 35.3489 -112.3814 93° East 462 532 33,000  Level Albuquerque Center
Sun 01:00:57 PM 35.3386 -112.1947 94° East 460 529 33,000  Level Albuquerque Center
Sun 01:01:59 PM 35.3317 -112.0408 93° East 459 528 33,000  Level Albuquerque Center
Sun 01:03:01 PM 35.3214 -111.8839 95° East 461 531 33,000  Level Albuquerque Center
Sun 01:04:03 PM 35.3139 -111.7278 93° East 462 532 33,000  Level Albuquerque Center
Sun 01:05:05 PM 35.3044 -111.5653 94° East 462 532 33,000  Level Albuquerque Center
Sun 01:06:07 PM 35.2956 -111.4092 94° East 461 531 33,000  Level Albuquerque Center
Sun 01:07:09 PM 35.2858 -111.2522 94° East 461 531 33,000  Level Albuquerque Center
Sun 01:08:11 PM 35.2747 -111.0614 94° East 463 533 33,000  Level Albuquerque Center
Sun 01:09:13 PM 35.2661 -110.9106 94° East 463 533 33,000  Level Albuquerque Center
Sun 01:10:15 PM 35.2558 -110.7600 95° East 464 534 33,000  Level Albuquerque Center
Sun 01:11:17 PM 35.2447 -110.5858 94° East 462 532 33,000  Level Albuquerque Center
Sun 01:12:19 PM 35.2364 -110.4358 94° East 462 532 33,000  Level Albuquerque Center
Sun 01:13:20 PM 35.2244 -110.2603 95° East 464 534 33,000  Level Albuquerque Center
Sun 01:14:22 PM 35.2142 -110.1094 95° East 465 535 33,000  Level Albuquerque Center
Sun 01:15:24 PM 35.2022 -109.9339 95° East 465 535 33,000  Level Albuquerque Center
Sun 01:16:26 PM 35.1919 -109.7844 95° East 464 534 33,000  Level Albuquerque Center
Sun 01:17:28 PM 35.1797 -109.6078 95° East 466 536 33,000  Level Albuquerque Center
Sun 01:18:30 PM 35.1689 -109.4586 95° East 464 534 33,000  Level Albuquerque Center
Sun 01:19:32 PM 35.1564 -109.2867 95° East 460 529 33,000  Level Albuquerque Center
Sun 01:20:34 PM 35.1453 -109.1378 95° East 461 531 33,000  Level Albuquerque Center
Sun 01:21:36 PM 35.1314 -108.9653 96° East 459 528 33,000  Level Albuquerque Center
Sun 01:22:38 PM 35.1200 -108.8183 95° East 458 527 33,000  Level Albuquerque Center
Sun 01:23:40 PM 35.1072 -108.6442 95° East 462 532 33,000  Level Albuquerque Center
Sun 01:24:42 PM 35.0947 -108.4953 96° East 462 532 33,000  Level Albuquerque Center
Sun 01:25:44 PM 35.0806 -108.3217 96° East 462 532 33,000  Level Albuquerque Center
Sun 01:26:46 PM 35.0681 -108.1731 96° East 461 531 33,000  Level Albuquerque Center
Sun 01:27:48 PM 35.0536 -107.9986 96° East 463 533 33,000  Level Albuquerque Center
Sun 01:28:50 PM 35.0406 -107.8503 96° East 462 532 33,000  Level Albuquerque Center
Sun 01:29:52 PM 35.0253 -107.6825 96° East 461 531 33,000  Level Albuquerque Center
Sun 01:30:54 PM 35.0106 -107.5275 97° East 462 532 33,000  Level Albuquerque Center
Sun 01:31:56 PM 34.9961 -107.3739 97° East 459 528 33,000  Level Albuquerque Center
Sun 01:32:58 PM 34.9814 -107.2203 97° East 459 528 33,000  Level Albuquerque Center
Sun 01:34:00 PM 34.9689 -107.0619 95° East 456 525 33,000  Level Albuquerque Center
Sun 01:35:02 PM 34.9517 -106.8928 97° East 451 519 33,000 339 Level Albuquerque Center
Sun 01:36:04 PM 34.9367 -106.7486 97° East 449 517 33,700 629 Climbing Albuquerque Center
Sun 01:37:06 PM 34.9214 -106.5792 96° East 451 519 34,300 484 Climbing Albuquerque Center
Sun 01:38:08 PM 34.9058 -106.4381 98° East 460 529 34,700 339 Climbing Albuquerque Center
Sun 01:39:10 PM 34.8900 -106.2856 97° East 456 525 35,000 145 Climbing Albuquerque Center
Sun 01:40:12 PM 34.8717 -106.1042 97° East 452 520 35,000  Level Albuquerque Center
Sun 01:41:14 PM 34.8553 -105.9514 97° East 455 524 35,000  Level Albuquerque Center
Sun 01:42:16 PM 34.8394 -105.7864 97° East 454 522 35,000  Level Albuquerque Center
Sun 01:43:18 PM 34.8233 -105.6328 97° East 454 522 35,000  Level Albuquerque Center
Sun 01:44:20 PM 34.8056 -105.4778 98° East 458 527 35,000  Level Albuquerque Center
Sun 01:45:22 PM 34.7903 -105.3250 97° East 455 524 35,000  Level Albuquerque Center
Sun 01:46:24 PM 34.7717 -105.1708 98° East 456 525 35,000  Level Albuquerque Center
Sun 01:47:26 PM 34.7558 -105.0186 97° East 453 521 35,000  Level Albuquerque Center
Sun 01:48:28 PM 34.7397 -104.8667 97° East 451 519 35,000  Level Albuquerque Center
Sun 01:49:30 PM 34.7189 -104.6875 98° East 455 524 35,000  Level Albuquerque Center
Sun 01:50:32 PM 34.7022 -104.5358 98° East 453 521 35,000  Level Albuquerque Center
Sun 01:51:34 PM 34.6853 -104.3833 98° East 454 522 35,000  Level Albuquerque Center
Sun 01:52:36 PM 34.6664 -104.2300 98° East 457 526 35,000  Level Albuquerque Center
Sun 01:53:37 PM 34.6494 -104.0781 98° East 455 524 35,000  Level Albuquerque Center
Sun 01:54:39 PM 34.6303 -103.9242 99° East 458 527 35,000  Level Albuquerque Center
Sun 01:55:41 PM 34.6086 -103.7458 98° East 457 526 35,000  Level Albuquerque Center
Sun 01:56:43 PM 34.5906 -103.5928 98° East 456 525 35,000  Level Albuquerque Center
Sun 01:57:45 PM 34.5708 -103.4389 99° East 458 527 35,000  Level Albuquerque Center
Sun 01:58:47 PM 34.5522 -103.2842 98° East 460 529 35,000  Level Albuquerque Center
Sun 01:59:49 PM 34.5322 -103.1311 99° East 458 527 35,000  Level Albuquerque Center
Sun 02:00:51 PM 34.5131 -102.9767 99° East 460 529 35,000  Level Albuquerque Center
Sun 02:01:53 PM 34.4914 -102.8156 99° East 456 525 35,000  Level Albuquerque Center
Sun 02:02:54 PM 34.4767 -102.6642 97° East 455 524 35,000  Level Albuquerque Center
Sun 02:03:56 PM 34.4614 -102.5108 97° East 459 528 35,000  Level Albuquerque Center
Sun 02:04:58 PM 34.4450 -102.3572 97° East 461 531 35,000  Level Albuquerque Center
Sun 02:06:00 PM 34.4261 -102.1736 97° East 462 532 35,000  Level Albuquerque Center
Sun 02:07:02 PM 34.4092 -102.0208 98° East 461 531 35,000  Level Albuquerque Center
Sun 02:08:04 PM 34.3922 -101.8697 98° East 459 528 35,000  Level Albuquerque Center
Sun 02:09:05 PM 34.3756 -101.7169 97° East 459 528 35,000  Level Albuquerque Center
Sun 02:10:07 PM 34.3594 -101.5653 97° East 459 528 35,000  Level Albuquerque Center
Sun 02:11:09 PM 34.3383 -101.3844 98° East 456 525 35,000  Level Albuquerque Center
Sun 02:12:02 PM 34.3244 -101.2708 98° East 462 532 35,000  Level Fort Worth Center
Sun 02:13:02 PM 34.3083 -101.1194 97° East 462 532 35,000  Level Fort Worth Center
Sun 02:14:02 PM 34.2897 -100.9653 98° East 462 532 35,000  Level Fort Worth Center
Sun 02:15:02 PM 34.2731 -100.8139 98° East 462 532 35,000  Level Fort Worth Center
Sun 02:16:02 PM 34.2564 -100.6575 97° East 467 537 35,000  Level Fort Worth Center
Sun 02:17:02 PM 34.2353 -100.5058 100° East 467 537 35,000  Level Fort Worth Center
Sun 02:18:02 PM 34.2142 -100.3419 99° East 461 531 35,000  Level Fort Worth Center
Sun 02:19:02 PM 34.1883 -100.1878 101° East 461 531 35,000  Level Fort Worth Center
Sun 02:20:02 PM 34.1478 -100.0408 108° East 461 531 35,000  Level Fort Worth Center
Sun 02:21:02 PM 34.1092 -99.8892 107° East 456 525 35,000  Level Fort Worth Center
Sun 02:22:02 PM 34.0722 -99.7453 107° East 456 525 35,000  Level Fort Worth Center
Sun 02:23:02 PM 34.0331 -99.6014 108° East 456 525 35,000  Level Fort Worth Center
Sun 02:24:02 PM 33.9917 -99.4550 109° East 456 525 35,000  Level Fort Worth Center
Sun 02:25:02 PM 33.9525 -99.3064 108° East 456 525 35,000  Level Fort Worth Center
Sun 02:26:02 PM 33.9206 -99.1931 109° East 461 531 35,000  Level Fort Worth Center
Sun 02:27:02 PM 33.8747 -99.0319 109° East 456 525 35,000  Level Fort Worth Center
Sun 02:28:02 PM 33.8369 -98.8864 107° East 456 525 35,000  Level Fort Worth Center
Sun 02:29:02 PM 33.7969 -98.7331 107° East 449 517 35,000 -450 Level Fort Worth Center
Sun 02:30:02 PM 33.7503 -98.5900 111° Southeast 449 517 34,100 -1,650 Descending Fort Worth Center
Sun 02:31:02 PM 33.6972 -98.4519 115° Southeast 449 517 31,700 -2,400 Descending Fort Worth Center
Sun 02:32:02 PM 33.6442 -98.3167 115° Southeast 454 522 29,300 -2,650 Descending Fort Worth Center
Sun 02:33:02 PM 33.5928 -98.1789 114° Southeast 454 522 26,400 -2,900 Descending Fort Worth Center
Sun 02:34:02 PM 33.5433 -98.0589 116° Southeast 448 516 23,500 -3,750 Descending Fort Worth Center
Sun 02:35:02 PM 33.4858 -97.9092 115° Southeast 448 516 18,900 -3,867 Descending Fort Worth Center
Sun 02:37:02 PM 33.3906 -97.6622 115° Southeast 412 474 11,900 -2,833 Descending Fort Worth Center
Sun 02:38:02 PM 33.3239 -97.5800 134° Southeast 358 412 10,400 -1,450 Descending Fort Worth Center
Sun 02:39:02 PM 33.2800 -97.5078 126° Southeast 328 377 9,000 -1,800 Descending Fort Worth Center
Sun 02:40:02 PM 33.2258 -97.4258 128° Southeast 297 342 6,800 -1,824 Descending Fort Worth Center
Sun 02:41:07 PM 33.1667 -97.3500 133° Southeast 274 315 5,200 -900 Descending Dallas / Fort Worth TRACON
Sun 02:42:02 PM 33.1150 -97.3042 143° Southeast 269 310 5,000 -470 Descending Fort Worth Center
Sun 02:43:02 PM 33.0692 -97.2522 136° Southeast 264 304 4,300 -700 Descending Fort Worth Center

Login

Don't have an account? Register now (free) for customized features, flight alerts, and more!